sensor_id;sensor_type;location;lat;lon;timestamp;P1;durP1;ratioP1;P2;durP2;ratioP2
1975;SDS011;988;48.016;7.800;2022-11-20T00:01:03;12.00;;;11.20;;
1975;SDS011;988;48.016;7.800;2022-11-20T00:03:33;12.10;;;11.40;;
1975;SDS011;988;48.016;7.800;2022-11-20T00:06:10;13.82;;;12.77;;
1975;SDS011;988;48.016;7.800;2022-11-20T00:08:37;12.07;;;11.40;;
1975;SDS011;988;48.016;7.800;2022-11-20T00:11:07;13.40;;;12.30;;
1975;SDS011;988;48.016;7.800;2022-11-20T00:13:35;13.70;;;12.60;;
1975;SDS011;988;48.016;7.800;2022-11-20T00:16:01;13.50;;;12.23;;
1975;SDS011;988;48.016;7.800;2022-11-20T00:18:28;13.40;;;12.25;;
1975;SDS011;988;48.016;7.800;2022-11-20T00:21:00;12.50;;;11.80;;
1975;SDS011;988;48.016;7.800;2022-11-20T00:23:27;12.90;;;12.10;;
1975;SDS011;988;48.016;7.800;2022-11-20T00:25:52;14.37;;;13.07;;
1975;SDS011;988;48.016;7.800;2022-11-20T00:28:18;14.50;;;13.37;;
1975;SDS011;988;48.016;7.800;2022-11-20T00:30:43;13.53;;;12.70;;
1975;SDS011;988;48.016;7.800;2022-11-20T00:33:09;13.63;;;12.70;;
1975;SDS011;988;48.016;7.800;2022-11-20T00:35:34;13.53;;;12.53;;
1975;SDS011;988;48.016;7.800;2022-11-20T00:38:00;13.43;;;12.53;;
1975;SDS011;988;48.016;7.800;2022-11-20T00:40:25;14.20;;;13.13;;
1975;SDS011;988;48.016;7.800;2022-11-20T00:42:51;14.30;;;13.40;;
1975;SDS011;988;48.016;7.800;2022-11-20T00:45:17;13.60;;;12.40;;
1975;SDS011;988;48.016;7.800;2022-11-20T00:47:42;14.43;;;13.30;;
1975;SDS011;988;48.016;7.800;2022-11-20T00:50:08;13.80;;;12.80;;
1975;SDS011;988;48.016;7.800;2022-11-20T00:52:33;13.80;;;12.90;;
1975;SDS011;988;48.016;7.800;2022-11-20T00:54:59;14.13;;;13.23;;
1975;SDS011;988;48.016;7.800;2022-11-20T00:57:24;13.23;;;12.13;;
1975;SDS011;988;48.016;7.800;2022-11-20T00:59:50;12.60;;;11.70;;
1975;SDS011;988;48.016;7.800;2022-11-20T01:02:16;13.20;;;12.30;;
1975;SDS011;988;48.016;7.800;2022-11-20T01:04:41;15.50;;;12.77;;
1975;SDS011;988;48.016;7.800;2022-11-20T01:07:07;13.10;;;12.20;;
1975;SDS011;988;48.016;7.800;2022-11-20T01:09:33;12.87;;;11.97;;
1975;SDS011;988;48.016;7.800;2022-11-20T01:11:58;12.60;;;11.80;;
1975;SDS011;988;48.016;7.800;2022-11-20T01:14:25;13.93;;;13.00;;
1975;SDS011;988;48.016;7.800;2022-11-20T01:16:51;13.03;;;12.23;;
1975;SDS011;988;48.016;7.800;2022-11-20T01:19:18;12.98;;;12.07;;
1975;SDS011;988;48.016;7.800;2022-11-20T01:21:45;13.27;;;12.25;;
1975;SDS011;988;48.016;7.800;2022-11-20T01:24:14;12.38;;;11.48;;
1975;SDS011;988;48.016;7.800;2022-11-20T01:26:41;12.93;;;11.88;;
1975;SDS011;988;48.016;7.800;2022-11-20T01:29:21;13.00;;;11.90;;
1975;SDS011;988;48.016;7.800;2022-11-20T01:31:48;13.15;;;12.25;;
1975;SDS011;988;48.016;7.800;2022-11-20T01:34:14;12.07;;;11.30;;
1975;SDS011;988;48.016;7.800;2022-11-20T01:36:42;12.40;;;11.50;;
1975;SDS011;988;48.016;7.800;2022-11-20T01:39:13;12.57;;;11.88;;
1975;SDS011;988;48.016;7.800;2022-11-20T01:41:41;13.15;;;12.15;;
1975;SDS011;988;48.016;7.800;2022-11-20T01:47:31;11.25;;;10.55;;
1975;SDS011;988;48.016;7.800;2022-11-20T01:50:33;13.07;;;11.85;;
1975;SDS011;988;48.016;7.800;2022-11-20T01:55:26;12.43;;;11.30;;
1975;SDS011;988;48.016;7.800;2022-11-20T01:57:55;12.82;;;10.65;;
1975;SDS011;988;48.016;7.800;2022-11-20T02:00:21;11.13;;;10.33;;
1975;SDS011;988;48.016;7.800;2022-11-20T02:05:47;11.95;;;10.85;;
1975;SDS011;988;48.016;7.800;2022-11-20T02:08:35;11.52;;;10.48;;
1975;SDS011;988;48.016;7.800;2022-11-20T02:11:01;11.77;;;10.75;;
1975;SDS011;988;48.016;7.800;2022-11-20T02:13:27;11.87;;;10.80;;
1975;SDS011;988;48.016;7.800;2022-11-20T02:16:24;12.35;;;11.23;;
1975;SDS011;988;48.016;7.800;2022-11-20T02:18:53;12.88;;;11.75;;
1975;SDS011;988;48.016;7.800;2022-11-20T02:21:24;10.95;;;9.98;;
1975;SDS011;988;48.016;7.800;2022-11-20T02:26:38;11.70;;;10.77;;
1975;SDS011;988;48.016;7.800;2022-11-20T02:29:07;11.85;;;10.90;;
1975;SDS011;988;48.016;7.800;2022-11-20T02:31:42;12.85;;;11.75;;
1975;SDS011;988;48.016;7.800;2022-11-20T02:34:08;13.48;;;12.30;;
1975;SDS011;988;48.016;7.800;2022-11-20T02:36:34;12.13;;;11.33;;
1975;SDS011;988;48.016;7.800;2022-11-20T02:39:03;12.73;;;11.50;;
1975;SDS011;988;48.016;7.800;2022-11-20T02:41:36;13.67;;;12.37;;
1975;SDS011;988;48.016;7.800;2022-11-20T02:44:03;12.95;;;11.95;;
1975;SDS011;988;48.016;7.800;2022-11-20T02:46:29;13.75;;;12.52;;
1975;SDS011;988;48.016;7.800;2022-11-20T02:48:55;12.63;;;11.63;;
1975;SDS011;988;48.016;7.800;2022-11-20T02:51:21;13.50;;;12.43;;
1975;SDS011;988;48.016;7.800;2022-11-20T02:53:47;12.23;;;11.23;;
1975;SDS011;988;48.016;7.800;2022-11-20T02:56:12;13.37;;;12.47;;
1975;SDS011;988;48.016;7.800;2022-11-20T02:58:38;11.80;;;10.97;;
1975;SDS011;988;48.016;7.800;2022-11-20T03:01:03;12.73;;;11.83;;
1975;SDS011;988;48.016;7.800;2022-11-20T03:03:29;13.07;;;12.07;;
1975;SDS011;988;48.016;7.800;2022-11-20T03:05:54;12.57;;;11.67;;
1975;SDS011;988;48.016;7.800;2022-11-20T03:08:20;14.10;;;13.10;;
1975;SDS011;988;48.016;7.800;2022-11-20T03:10:45;11.90;;;11.00;;
1975;SDS011;988;48.016;7.800;2022-11-20T03:13:11;12.67;;;11.77;;
1975;SDS011;988;48.016;7.800;2022-11-20T03:15:36;13.47;;;12.47;;
1975;SDS011;988;48.016;7.800;2022-11-20T03:18:02;12.60;;;11.77;;
1975;SDS011;988;48.016;7.800;2022-11-20T03:20:28;12.77;;;11.77;;
1975;SDS011;988;48.016;7.800;2022-11-20T03:22:54;13.40;;;12.50;;
1975;SDS011;988;48.016;7.800;2022-11-20T03:25:20;13.10;;;12.00;;
1975;SDS011;988;48.016;7.800;2022-11-20T03:27:46;13.57;;;12.43;;
1975;SDS011;988;48.016;7.800;2022-11-20T03:30:12;12.70;;;11.43;;
1975;SDS011;988;48.016;7.800;2022-11-20T03:32:38;12.63;;;11.82;;
1975;SDS011;988;48.016;7.800;2022-11-20T03:35:04;12.70;;;11.90;;
1975;SDS011;988;48.016;7.800;2022-11-20T03:37:30;12.63;;;11.73;;
1975;SDS011;988;48.016;7.800;2022-11-20T03:39:57;13.32;;;12.45;;
1975;SDS011;988;48.016;7.800;2022-11-20T03:42:22;13.43;;;12.63;;
1975;SDS011;988;48.016;7.800;2022-11-20T03:45:06;13.38;;;12.48;;
1975;SDS011;988;48.016;7.800;2022-11-20T03:47:32;14.82;;;13.57;;
1975;SDS011;988;48.016;7.800;2022-11-20T03:49:58;13.63;;;12.83;;
1975;SDS011;988;48.016;7.800;2022-11-20T03:52:23;13.43;;;12.23;;
1975;SDS011;988;48.016;7.800;2022-11-20T03:54:49;14.00;;;13.10;;
1975;SDS011;988;48.016;7.800;2022-11-20T03:57:15;13.97;;;12.73;;
1975;SDS011;988;48.016;7.800;2022-11-20T03:59:40;13.60;;;12.60;;
1975;SDS011;988;48.016;7.800;2022-11-20T04:02:06;14.63;;;13.60;;
1975;SDS011;988;48.016;7.800;2022-11-20T04:04:31;13.33;;;12.43;;
1975;SDS011;988;48.016;7.800;2022-11-20T04:06:57;13.93;;;12.90;;
1975;SDS011;988;48.016;7.800;2022-11-20T04:09:22;14.70;;;13.60;;
1975;SDS011;988;48.016;7.800;2022-11-20T04:11:48;14.53;;;13.57;;
1975;SDS011;988;48.016;7.800;2022-11-20T04:14:14;15.07;;;14.17;;
1975;SDS011;988;48.016;7.800;2022-11-20T04:16:40;13.85;;;12.95;;
1975;SDS011;988;48.016;7.800;2022-11-20T04:19:10;13.53;;;12.53;;
1975;SDS011;988;48.016;7.800;2022-11-20T04:21:37;13.73;;;12.73;;
1975;SDS011;988;48.016;7.800;2022-11-20T04:24:03;13.53;;;12.73;;
1975;SDS011;988;48.016;7.800;2022-11-20T04:26:29;12.52;;;11.82;;
1975;SDS011;988;48.016;7.800;2022-11-20T04:28:55;13.40;;;12.52;;
1975;SDS011;988;48.016;7.800;2022-11-20T04:31:23;13.27;;;12.48;;
1975;SDS011;988;48.016;7.800;2022-11-20T04:33:50;13.00;;;12.30;;
1975;SDS011;988;48.016;7.800;2022-11-20T04:36:17;12.70;;;11.90;;
1975;SDS011;988;48.016;7.800;2022-11-20T04:38:45;12.85;;;12.15;;
1975;SDS011;988;48.016;7.800;2022-11-20T04:41:14;12.57;;;11.87;;
1975;SDS011;988;48.016;7.800;2022-11-20T04:43:41;14.93;;;13.90;;
1975;SDS011;988;48.016;7.800;2022-11-20T04:46:12;14.05;;;13.10;;
1975;SDS011;988;48.016;7.800;2022-11-20T04:48:38;14.37;;;13.23;;
1975;SDS011;988;48.016;7.800;2022-11-20T04:51:03;13.43;;;12.67;;
1975;SDS011;988;48.016;7.800;2022-11-20T04:53:29;13.40;;;12.57;;
1975;SDS011;988;48.016;7.800;2022-11-20T04:56:02;13.00;;;12.30;;
1975;SDS011;988;48.016;7.800;2022-11-20T04:58:30;13.80;;;13.00;;
1975;SDS011;988;48.016;7.800;2022-11-20T05:01:02;13.27;;;12.57;;
1975;SDS011;988;48.016;7.800;2022-11-20T05:03:30;14.38;;;13.57;;
1975;SDS011;988;48.016;7.800;2022-11-20T05:05:55;14.18;;;13.38;;
1975;SDS011;988;48.016;7.800;2022-11-20T05:08:21;13.97;;;13.20;;
1975;SDS011;988;48.016;7.800;2022-11-20T05:10:47;13.60;;;12.80;;
1975;SDS011;988;48.016;7.800;2022-11-20T05:13:13;14.07;;;13.00;;
1975;SDS011;988;48.016;7.800;2022-11-20T05:15:38;14.50;;;13.63;;
1975;SDS011;988;48.016;7.800;2022-11-20T05:18:04;14.33;;;13.63;;
1975;SDS011;988;48.016;7.800;2022-11-20T05:20:29;14.60;;;13.60;;
1975;SDS011;988;48.016;7.800;2022-11-20T05:22:58;13.67;;;12.97;;
1975;SDS011;988;48.016;7.800;2022-11-20T05:25:24;14.38;;;13.27;;
1975;SDS011;988;48.016;7.800;2022-11-20T05:27:50;14.45;;;13.65;;
1975;SDS011;988;48.016;7.800;2022-11-20T05:30:15;13.60;;;12.90;;
1975;SDS011;988;48.016;7.800;2022-11-20T05:32:41;13.23;;;12.20;;
1975;SDS011;988;48.016;7.800;2022-11-20T05:35:07;12.83;;;12.13;;
1975;SDS011;988;48.016;7.800;2022-11-20T05:37:33;13.65;;;12.85;;
1975;SDS011;988;48.016;7.800;2022-11-20T05:39:58;14.10;;;13.03;;
1975;SDS011;988;48.016;7.800;2022-11-20T05:42:24;12.60;;;11.90;;
1975;SDS011;988;48.016;7.800;2022-11-20T05:44:59;14.30;;;13.40;;
1975;SDS011;988;48.016;7.800;2022-11-20T05:47:26;13.90;;;13.00;;
1975;SDS011;988;48.016;7.800;2022-11-20T05:49:53;13.05;;;12.35;;
1975;SDS011;988;48.016;7.800;2022-11-20T05:52:19;12.90;;;12.10;;
1975;SDS011;988;48.016;7.800;2022-11-20T05:54:45;12.90;;;12.20;;
1975;SDS011;988;48.016;7.800;2022-11-20T05:57:10;14.23;;;13.53;;
1975;SDS011;988;48.016;7.800;2022-11-20T05:59:36;13.10;;;12.33;;
1975;SDS011;988;48.016;7.800;2022-11-20T06:02:01;13.20;;;12.40;;
1975;SDS011;988;48.016;7.800;2022-11-20T06:04:27;13.10;;;11.80;;
1975;SDS011;988;48.016;7.800;2022-11-20T06:06:52;12.60;;;11.57;;
1975;SDS011;988;48.016;7.800;2022-11-20T06:09:18;12.10;;;11.40;;
1975;SDS011;988;48.016;7.800;2022-11-20T06:11:43;13.07;;;12.17;;
1975;SDS011;988;48.016;7.800;2022-11-20T06:14:09;11.60;;;11.00;;
1975;SDS011;988;48.016;7.800;2022-11-20T06:16:35;11.93;;;11.23;;
1975;SDS011;988;48.016;7.800;2022-11-20T06:19:00;11.83;;;11.13;;
1975;SDS011;988;48.016;7.800;2022-11-20T06:21:26;11.60;;;10.90;;
1975;SDS011;988;48.016;7.800;2022-11-20T06:23:52;10.97;;;10.30;;
1975;SDS011;988;48.016;7.800;2022-11-20T06:26:22;11.45;;;10.73;;
1975;SDS011;988;48.016;7.800;2022-11-20T06:28:49;10.02;;;9.43;;
1975;SDS011;988;48.016;7.800;2022-11-20T06:31:16;10.23;;;9.60;;
1975;SDS011;988;48.016;7.800;2022-11-20T06:33:44;11.25;;;10.45;;
1975;SDS011;988;48.016;7.800;2022-11-20T06:36:10;10.87;;;10.27;;
1975;SDS011;988;48.016;7.800;2022-11-20T06:38:37;10.98;;;10.15;;
1975;SDS011;988;48.016;7.800;2022-11-20T06:41:04;10.63;;;10.02;;
1975;SDS011;988;48.016;7.800;2022-11-20T06:43:31;12.98;;;12.05;;
1975;SDS011;988;48.016;7.800;2022-11-20T06:45:57;11.77;;;10.97;;
1975;SDS011;988;48.016;7.800;2022-11-20T06:48:24;12.18;;;11.57;;
1975;SDS011;988;48.016;7.800;2022-11-20T06:50:53;12.27;;;11.68;;
1975;SDS011;988;48.016;7.800;2022-11-20T06:53:19;11.97;;;11.27;;
1975;SDS011;988;48.016;7.800;2022-11-20T06:55:45;12.30;;;11.50;;
1975;SDS011;988;48.016;7.800;2022-11-20T06:58:11;12.48;;;11.68;;
1975;SDS011;988;48.016;7.800;2022-11-20T07:00:38;12.10;;;11.30;;
1975;SDS011;988;48.016;7.800;2022-11-20T07:03:08;11.85;;;11.05;;
1975;SDS011;988;48.016;7.800;2022-11-20T07:05:35;11.45;;;10.85;;
1975;SDS011;988;48.016;7.800;2022-11-20T07:08:02;11.90;;;11.10;;
1975;SDS011;988;48.016;7.800;2022-11-20T07:10:28;11.73;;;11.13;;
1975;SDS011;988;48.016;7.800;2022-11-20T07:12:53;12.80;;;11.90;;
1975;SDS011;988;48.016;7.800;2022-11-20T07:15:20;11.25;;;10.65;;
1975;SDS011;988;48.016;7.800;2022-11-20T07:17:47;12.98;;;12.27;;
1975;SDS011;988;48.016;7.800;2022-11-20T07:20:13;11.67;;;10.97;;
1975;SDS011;988;48.016;7.800;2022-11-20T07:22:39;11.90;;;11.30;;
1975;SDS011;988;48.016;7.800;2022-11-20T07:25:05;12.73;;;11.80;;
1975;SDS011;988;48.016;7.800;2022-11-20T07:27:31;12.38;;;11.63;;
1975;SDS011;988;48.016;7.800;2022-11-20T07:29:57;12.70;;;12.00;;
1975;SDS011;988;48.016;7.800;2022-11-20T07:32:23;13.13;;;12.00;;
1975;SDS011;988;48.016;7.800;2022-11-20T07:34:48;12.93;;;12.17;;
1975;SDS011;988;48.016;7.800;2022-11-20T07:37:14;13.70;;;12.90;;
1975;SDS011;988;48.016;7.800;2022-11-20T07:39:40;12.57;;;11.75;;
1975;SDS011;988;48.016;7.800;2022-11-20T07:42:06;12.43;;;11.82;;
1975;SDS011;988;48.016;7.800;2022-11-20T07:44:32;12.43;;;11.67;;
1975;SDS011;988;48.016;7.800;2022-11-20T07:46:58;11.50;;;10.90;;
1975;SDS011;988;48.016;7.800;2022-11-20T07:49:23;12.37;;;11.50;;
1975;SDS011;988;48.016;7.800;2022-11-20T07:51:52;11.70;;;10.93;;
1975;SDS011;988;48.016;7.800;2022-11-20T07:54:19;10.98;;;10.38;;
1975;SDS011;988;48.016;7.800;2022-11-20T07:56:47;11.02;;;10.43;;
1975;SDS011;988;48.016;7.800;2022-11-20T07:59:13;11.82;;;11.20;;
1975;SDS011;988;48.016;7.800;2022-11-20T08:01:40;10.98;;;10.27;;
1975;SDS011;988;48.016;7.800;2022-11-20T08:04:06;9.80;;;9.30;;
1975;SDS011;988;48.016;7.800;2022-11-20T08:06:32;11.53;;;10.77;;
1975;SDS011;988;48.016;7.800;2022-11-20T08:08:57;10.83;;;10.23;;
1975;SDS011;988;48.016;7.800;2022-11-20T08:11:23;10.50;;;9.97;;
1975;SDS011;988;48.016;7.800;2022-11-20T08:14:07;12.35;;;11.65;;
1975;SDS011;988;48.016;7.800;2022-11-20T08:19:05;12.30;;;11.70;;
1975;SDS011;988;48.016;7.800;2022-11-20T08:21:32;13.00;;;12.30;;
1975;SDS011;988;48.016;7.800;2022-11-20T08:23:58;12.50;;;11.90;;
1975;SDS011;988;48.016;7.800;2022-11-20T08:26:24;12.90;;;12.00;;
1975;SDS011;988;48.016;7.800;2022-11-20T08:28:54;12.57;;;11.88;;
1975;SDS011;988;48.016;7.800;2022-11-20T08:31:20;13.00;;;12.00;;
1975;SDS011;988;48.016;7.800;2022-11-20T08:33:46;13.60;;;12.90;;
1975;SDS011;988;48.016;7.800;2022-11-20T08:36:12;12.70;;;12.10;;
1975;SDS011;988;48.016;7.800;2022-11-20T08:38:37;13.37;;;12.67;;
1975;SDS011;988;48.016;7.800;2022-11-20T08:41:04;12.73;;;12.13;;
1975;SDS011;988;48.016;7.800;2022-11-20T08:43:49;13.77;;;13.05;;
1975;SDS011;988;48.016;7.800;2022-11-20T08:46:16;14.13;;;13.27;;
1975;SDS011;988;48.016;7.800;2022-11-20T08:48:42;13.75;;;13.10;;
1975;SDS011;988;48.016;7.800;2022-11-20T08:51:08;14.50;;;13.70;;
1975;SDS011;988;48.016;7.800;2022-11-20T08:53:34;14.57;;;13.60;;
1975;SDS011;988;48.016;7.800;2022-11-20T08:56:00;13.60;;;12.80;;
1975;SDS011;988;48.016;7.800;2022-11-20T08:58:25;14.33;;;13.50;;
1975;SDS011;988;48.016;7.800;2022-11-20T09:00:51;14.03;;;13.33;;
1975;SDS011;988;48.016;7.800;2022-11-20T09:03:17;15.80;;;15.00;;
1975;SDS011;988;48.016;7.800;2022-11-20T09:05:43;15.60;;;14.80;;
1975;SDS011;988;48.016;7.800;2022-11-20T09:08:08;14.10;;;13.30;;
1975;SDS011;988;48.016;7.800;2022-11-20T09:10:34;14.20;;;13.27;;
1975;SDS011;988;48.016;7.800;2022-11-20T09:13:00;13.80;;;13.10;;
1975;SDS011;988;48.016;7.800;2022-11-20T09:15:26;14.30;;;13.52;;
1975;SDS011;988;48.016;7.800;2022-11-20T09:20:23;13.43;;;12.60;;
1975;SDS011;988;48.016;7.800;2022-11-20T09:22:49;15.63;;;14.52;;
1975;SDS011;988;48.016;7.800;2022-11-20T09:25:15;14.37;;;13.67;;
1975;SDS011;988;48.016;7.800;2022-11-20T09:27:41;13.37;;;12.37;;
1975;SDS011;988;48.016;7.800;2022-11-20T09:30:08;14.73;;;13.85;;
1975;SDS011;988;48.016;7.800;2022-11-20T09:32:34;14.45;;;13.75;;
1975;SDS011;988;48.016;7.800;2022-11-20T09:35:00;13.67;;;12.87;;
1975;SDS011;988;48.016;7.800;2022-11-20T09:37:26;13.95;;;13.13;;
1975;SDS011;988;48.016;7.800;2022-11-20T09:39:52;14.80;;;13.93;;
1975;SDS011;988;48.016;7.800;2022-11-20T09:42:41;14.80;;;14.00;;
1975;SDS011;988;48.016;7.800;2022-11-20T09:45:21;15.38;;;14.52;;
1975;SDS011;988;48.016;7.800;2022-11-20T09:54:19;17.17;;;16.08;;
1975;SDS011;988;48.016;7.800;2022-11-20T09:56:53;15.38;;;14.30;;
1975;SDS011;988;48.016;7.800;2022-11-20T10:01:53;15.52;;;14.65;;
1975;SDS011;988;48.016;7.800;2022-11-20T10:04:20;15.23;;;14.27;;
1975;SDS011;988;48.016;7.800;2022-11-20T10:07:07;15.88;;;15.07;;
1975;SDS011;988;48.016;7.800;2022-11-20T10:09:55;16.65;;;15.75;;
1975;SDS011;988;48.016;7.800;2022-11-20T10:12:31;17.42;;;16.10;;
1975;SDS011;988;48.016;7.800;2022-11-20T10:18:07;17.15;;;16.15;;
1975;SDS011;988;48.016;7.800;2022-11-20T10:20:43;16.38;;;15.30;;
1975;SDS011;988;48.016;7.800;2022-11-20T10:26:17;16.48;;;15.38;;
1975;SDS011;988;48.016;7.800;2022-11-20T10:31:39;16.33;;;15.43;;
1975;SDS011;988;48.016;7.800;2022-11-20T10:37:01;15.32;;;14.30;;
1975;SDS011;988;48.016;7.800;2022-11-20T10:39:35;16.15;;;14.75;;
1975;SDS011;988;48.016;7.800;2022-11-20T10:42:08;16.02;;;15.07;;
1975;SDS011;988;48.016;7.800;2022-11-20T10:44:39;17.33;;;16.00;;
1975;SDS011;988;48.016;7.800;2022-11-20T10:47:24;17.60;;;16.40;;
1975;SDS011;988;48.016;7.800;2022-11-20T10:49:53;17.48;;;16.48;;
1975;SDS011;988;48.016;7.800;2022-11-20T11:00:30;19.25;;;18.20;;
1975;SDS011;988;48.016;7.800;2022-11-20T11:02:56;18.88;;;17.67;;
1975;SDS011;988;48.016;7.800;2022-11-20T11:08:35;18.35;;;17.33;;
1975;SDS011;988;48.016;7.800;2022-11-20T11:11:18;19.13;;;17.75;;
1975;SDS011;988;48.016;7.800;2022-11-20T11:13:45;20.27;;;19.08;;
1975;SDS011;988;48.016;7.800;2022-11-20T11:16:24;19.33;;;18.13;;
1975;SDS011;988;48.016;7.800;2022-11-20T11:18:51;19.38;;;18.27;;
1975;SDS011;988;48.016;7.800;2022-11-20T11:21:24;21.33;;;20.13;;
1975;SDS011;988;48.016;7.800;2022-11-20T11:24:00;20.13;;;18.85;;
1975;SDS011;988;48.016;7.800;2022-11-20T11:26:28;21.47;;;20.27;;
1975;SDS011;988;48.016;7.800;2022-11-20T11:31:28;20.40;;;19.40;;
1975;SDS011;988;48.016;7.800;2022-11-20T11:34:05;22.80;;;21.50;;
1975;SDS011;988;48.016;7.800;2022-11-20T11:36:32;21.40;;;20.10;;
1975;SDS011;988;48.016;7.800;2022-11-20T11:38:59;21.90;;;20.80;;
1975;SDS011;988;48.016;7.800;2022-11-20T11:41:28;23.13;;;21.73;;
1975;SDS011;988;48.016;7.800;2022-11-20T11:43:58;22.07;;;20.60;;
1975;SDS011;988;48.016;7.800;2022-11-20T11:46:52;21.93;;;20.53;;
1975;SDS011;988;48.016;7.800;2022-11-20T11:49:19;21.53;;;20.00;;
1975;SDS011;988;48.016;7.800;2022-11-20T11:57:24;22.87;;;21.47;;
1975;SDS011;988;48.016;7.800;2022-11-20T12:05:27;21.07;;;19.87;;
1975;SDS011;988;48.016;7.800;2022-11-20T12:08:16;21.37;;;20.17;;
1975;SDS011;988;48.016;7.800;2022-11-20T12:10:56;20.20;;;18.90;;
1975;SDS011;988;48.016;7.800;2022-11-20T12:16:13;22.60;;;21.40;;
1975;SDS011;988;48.016;7.800;2022-11-20T12:18:42;23.20;;;21.80;;
1975;SDS011;988;48.016;7.800;2022-11-20T12:32:32;21.38;;;20.05;;
1975;SDS011;988;48.016;7.800;2022-11-20T12:38:16;21.57;;;20.27;;
1975;SDS011;988;48.016;7.800;2022-11-20T12:40:49;20.03;;;19.03;;
1975;SDS011;988;48.016;7.800;2022-11-20T12:43:24;20.77;;;19.70;;
1975;SDS011;988;48.016;7.800;2022-11-20T12:59:50;21.80;;;20.60;;
1975;SDS011;988;48.016;7.800;2022-11-20T13:08:23;21.07;;;19.77;;
1975;SDS011;988;48.016;7.800;2022-11-20T13:10:52;20.80;;;19.57;;
1975;SDS011;988;48.016;7.800;2022-11-20T13:13:35;21.03;;;19.73;;
1975;SDS011;988;48.016;7.800;2022-11-20T13:16:14;23.10;;;21.08;;
1975;SDS011;988;48.016;7.800;2022-11-20T13:18:47;22.00;;;20.80;;
1975;SDS011;988;48.016;7.800;2022-11-20T13:21:13;23.60;;;22.30;;
1975;SDS011;988;48.016;7.800;2022-11-20T13:23:45;22.27;;;21.08;;
1975;SDS011;988;48.016;7.800;2022-11-20T13:26:16;21.57;;;20.47;;
1975;SDS011;988;48.016;7.800;2022-11-20T13:28:48;22.13;;;21.00;;
1975;SDS011;988;48.016;7.800;2022-11-20T13:31:30;21.63;;;20.53;;
1975;SDS011;988;48.016;7.800;2022-11-20T13:34:02;22.93;;;21.63;;
1975;SDS011;988;48.016;7.800;2022-11-20T13:36:30;23.83;;;22.13;;
1975;SDS011;988;48.016;7.800;2022-11-20T13:38:57;22.27;;;20.97;;
1975;SDS011;988;48.016;7.800;2022-11-20T13:46:53;19.90;;;18.90;;
1975;SDS011;988;48.016;7.800;2022-11-20T13:51:57;22.00;;;20.43;;
1975;SDS011;988;48.016;7.800;2022-11-20T13:54:52;22.20;;;20.90;;
1975;SDS011;988;48.016;7.800;2022-11-20T14:00:57;23.67;;;22.30;;
1975;SDS011;988;48.016;7.800;2022-11-20T14:03:27;22.60;;;21.33;;
1975;SDS011;988;48.016;7.800;2022-11-20T14:05:57;22.73;;;21.52;;
1975;SDS011;988;48.016;7.800;2022-11-20T14:08:38;20.67;;;19.48;;
1975;SDS011;988;48.016;7.800;2022-11-20T14:11:24;23.17;;;21.83;;
1975;SDS011;988;48.016;7.800;2022-11-20T14:16:32;23.48;;;22.13;;
1975;SDS011;988;48.016;7.800;2022-11-20T14:21:53;25.45;;;24.05;;
1975;SDS011;988;48.016;7.800;2022-11-20T14:24:39;25.00;;;23.33;;
1975;SDS011;988;48.016;7.800;2022-11-20T14:27:05;23.40;;;21.97;;
1975;SDS011;988;48.016;7.800;2022-11-20T14:29:46;22.30;;;21.10;;
1975;SDS011;988;48.016;7.800;2022-11-20T14:32:14;21.42;;;20.13;;
1975;SDS011;988;48.016;7.800;2022-11-20T14:34:42;21.00;;;19.70;;
1975;SDS011;988;48.016;7.800;2022-11-20T14:37:11;20.45;;;19.25;;
1975;SDS011;988;48.016;7.800;2022-11-20T14:39:46;20.00;;;18.80;;
1975;SDS011;988;48.016;7.800;2022-11-20T14:42:18;21.85;;;20.52;;
1975;SDS011;988;48.016;7.800;2022-11-20T14:44:45;19.70;;;18.70;;
1975;SDS011;988;48.016;7.800;2022-11-20T14:47:15;19.83;;;18.73;;
1975;SDS011;988;48.016;7.800;2022-11-20T14:49:44;21.45;;;20.20;;
1975;SDS011;988;48.016;7.800;2022-11-20T14:52:12;18.80;;;17.90;;
1975;SDS011;988;48.016;7.800;2022-11-20T14:54:45;20.70;;;19.50;;
1975;SDS011;988;48.016;7.800;2022-11-20T14:57:53;19.77;;;18.77;;
1975;SDS011;988;48.016;7.800;2022-11-20T15:02:33;22.35;;;20.60;;
1975;SDS011;988;48.016;7.800;2022-11-20T15:05:00;20.10;;;19.10;;
1975;SDS011;988;48.016;7.800;2022-11-20T15:07:30;18.73;;;17.73;;
1975;SDS011;988;48.016;7.800;2022-11-20T15:12:31;19.00;;;18.05;;
1975;SDS011;988;48.016;7.800;2022-11-20T15:14:58;20.35;;;19.25;;
1975;SDS011;988;48.016;7.800;2022-11-20T15:17:25;20.52;;;18.90;;
1975;SDS011;988;48.016;7.800;2022-11-20T15:19:51;19.97;;;18.77;;
1975;SDS011;988;48.016;7.800;2022-11-20T15:22:18;18.95;;;17.90;;
1975;SDS011;988;48.016;7.800;2022-11-20T15:24:44;18.57;;;17.27;;
1975;SDS011;988;48.016;7.800;2022-11-20T15:27:10;19.10;;;17.77;;
1975;SDS011;988;48.016;7.800;2022-11-20T15:29:36;25.60;;;23.80;;
1975;SDS011;988;48.016;7.800;2022-11-20T15:32:02;22.40;;;21.00;;
1975;SDS011;988;48.016;7.800;2022-11-20T15:34:28;19.67;;;18.33;;
1975;SDS011;988;48.016;7.800;2022-11-20T15:36:53;18.20;;;17.30;;
1975;SDS011;988;48.016;7.800;2022-11-20T15:39:19;18.90;;;17.80;;
1975;SDS011;988;48.016;7.800;2022-11-20T15:41:45;19.00;;;17.80;;
1975;SDS011;988;48.016;7.800;2022-11-20T15:44:11;18.13;;;17.13;;
1975;SDS011;988;48.016;7.800;2022-11-20T15:46:37;21.23;;;20.13;;
1975;SDS011;988;48.016;7.800;2022-11-20T15:49:09;24.95;;;23.40;;
1975;SDS011;988;48.016;7.800;2022-11-20T15:51:37;21.98;;;20.88;;
1975;SDS011;988;48.016;7.800;2022-11-20T15:54:09;22.88;;;21.27;;
1975;SDS011;988;48.016;7.800;2022-11-20T15:56:42;25.63;;;23.58;;
1975;SDS011;988;48.016;7.800;2022-11-20T15:59:08;25.17;;;23.20;;
1975;SDS011;988;48.016;7.800;2022-11-20T16:01:33;18.93;;;17.93;;
1975;SDS011;988;48.016;7.800;2022-11-20T16:03:59;19.30;;;18.10;;
1975;SDS011;988;48.016;7.800;2022-11-20T16:06:25;18.13;;;16.80;;
1975;SDS011;988;48.016;7.800;2022-11-20T16:08:50;18.20;;;17.30;;
1975;SDS011;988;48.016;7.800;2022-11-20T16:11:16;17.70;;;16.70;;
1975;SDS011;988;48.016;7.800;2022-11-20T16:13:43;17.95;;;16.95;;
1975;SDS011;988;48.016;7.800;2022-11-20T16:16:28;17.27;;;16.35;;
1975;SDS011;988;48.016;7.800;2022-11-20T16:18:58;16.67;;;15.75;;
1975;SDS011;988;48.016;7.800;2022-11-20T16:21:25;18.83;;;17.90;;
1975;SDS011;988;48.016;7.800;2022-11-20T16:23:57;17.98;;;16.98;;
1975;SDS011;988;48.016;7.800;2022-11-20T16:26:23;18.30;;;17.20;;
1975;SDS011;988;48.016;7.800;2022-11-20T16:28:49;17.03;;;16.23;;
1975;SDS011;988;48.016;7.800;2022-11-20T16:31:16;17.33;;;16.47;;
1975;SDS011;988;48.016;7.800;2022-11-20T16:33:42;16.50;;;15.70;;
1975;SDS011;988;48.016;7.800;2022-11-20T16:36:14;16.65;;;15.85;;
1975;SDS011;988;48.016;7.800;2022-11-20T16:38:40;16.88;;;15.98;;
1975;SDS011;988;48.016;7.800;2022-11-20T16:41:06;16.88;;;15.93;;
1975;SDS011;988;48.016;7.800;2022-11-20T16:43:41;18.92;;;17.85;;
1975;SDS011;988;48.016;7.800;2022-11-20T16:46:20;19.23;;;18.05;;
1975;SDS011;988;48.016;7.800;2022-11-20T16:48:57;16.75;;;15.95;;
1975;SDS011;988;48.016;7.800;2022-11-20T16:51:28;16.38;;;15.38;;
1975;SDS011;988;48.016;7.800;2022-11-20T16:53:54;16.63;;;15.82;;
1975;SDS011;988;48.016;7.800;2022-11-20T16:56:21;16.60;;;15.80;;
1975;SDS011;988;48.016;7.800;2022-11-20T16:58:52;17.00;;;16.15;;
1975;SDS011;988;48.016;7.800;2022-11-20T17:01:19;17.00;;;16.20;;
1975;SDS011;988;48.016;7.800;2022-11-20T17:03:52;17.33;;;16.42;;
1975;SDS011;988;48.016;7.800;2022-11-20T17:06:22;16.90;;;15.95;;
1975;SDS011;988;48.016;7.800;2022-11-20T17:09:08;17.13;;;16.17;;
1975;SDS011;988;48.016;7.800;2022-11-20T17:11:35;17.20;;;16.20;;
1975;SDS011;988;48.016;7.800;2022-11-20T17:14:01;16.35;;;15.50;;